.
WxDataArchive / Data Records for 2006-08-24
2006-08-23 August 2006 2006-08-25

Data Records for Thursday, 24 August 2006

Time	Temp	Chill	HIndex	Humid	Dewpt	 Wind 	HiWind	WindDir	Rain 	Barom 
-----	----	-----	------	-----	-----	------	------	-------	-----	----- 
00:00	67.4	67.4	67.4	80	61.0	0	0	---	0.00	29.922 
00:05	67.1	67.1	67.1	80	60.7	0	0	---	0.00	29.922 
00:10	67.1	67.1	67.1	82	61.4	0	0	---	0.00	29.922 
00:15	66.9	66.9	66.9	81	60.9	0	0	---	0.00	29.922 
00:20	66.9	66.9	66.9	82	61.2	0	0	---	0.00	29.922 
00:25	66.8	66.8	66.8	82	61.1	0	0	---	0.00	29.922 
00:30	66.8	66.8	66.8	82	61.1	0	0	---	0.00	29.915 
00:35	66.8	66.8	66.8	82	61.1	0	0	---	0.00	29.915 
00:40	66.8	66.8	66.8	82	61.1	0	0	---	0.00	29.915 
00:45	66.8	66.8	66.8	82	61.1	0	0	---	0.00	29.923 
00:50	66.8	66.8	66.8	82	61.1	0	0	---	0.00	29.923 
00:55	66.9	66.9	66.9	82	61.2	0	0	---	0.00	29.923 
01:00	66.9	66.9	66.9	83	61.6	0	0	---	0.00	29.928 
01:05	66.9	66.9	66.9	83	61.6	0	0	---	0.00	29.928 
01:10	67.1	67.1	67.1	83	61.8	0	0	---	0.00	29.928 
01:15	67.1	67.1	67.1	83	61.8	0	0	---	0.00	29.922 
01:20	67.1	67.1	67.1	84	62.1	0	0	---	0.00	29.922 
01:25	67.1	67.1	67.1	84	62.1	0	0	---	0.00	29.922 
01:30	67.1	67.1	67.1	84	62.1	0	0	---	0.00	29.923 
01:35	67.1	67.1	67.1	84	62.1	0	0	---	0.00	29.923 
01:40	66.9	66.9	66.9	84	61.9	0	0	---	0.00	29.923 
01:45	66.9	66.9	66.9	84	61.9	0	0	---	0.00	29.924 
01:50	66.8	66.8	66.8	84	61.8	0	1	90	0.00	29.924 
01:55	66.8	66.8	66.8	84	61.8	0	0	---	0.00	29.924 
02:00	66.6	66.6	66.6	84	61.6	0	0	---	0.00	29.918 
02:05	66.6	66.6	66.6	84	61.6	0	0	---	0.00	29.918 
02:10	66.6	66.6	66.6	83	61.3	0	0	---	0.00	29.918 
02:15	66.6	66.6	66.6	84	61.6	0	0	---	0.00	29.911 
02:20	66.6	66.6	66.6	84	61.6	0	0	---	0.00	29.911 
02:25	66.4	66.4	66.4	84	61.4	0	0	---	0.00	29.911 
02:30	66.3	66.3	66.3	83	61.0	0	0	---	0.00	29.909 
02:35	66.3	66.3	66.3	83	61.0	0	0	---	0.00	29.909 
02:40	66.3	66.3	66.3	83	61.0	0	0	---	0.00	29.909 
02:45	66.3	66.3	66.3	83	61.0	0	0	---	0.00	29.907 
02:50	66.3	66.3	66.3	83	61.0	0	0	---	0.00	29.907 
02:55	66.4	66.4	66.4	83	61.1	0	0	---	0.00	29.907 
03:00	66.6	66.6	66.6	83	61.3	0	0	---	0.00	29.920 
03:05	66.6	66.6	66.6	83	61.3	0	0	---	0.00	29.920 
03:10	66.6	66.6	66.6	83	61.3	0	0	---	0.00	29.920 
03:15	66.6	66.6	66.6	83	61.3	0	0	---	0.00	29.921 
03:20	66.6	66.6	66.6	84	61.6	0	0	---	0.00	29.921 
03:25	66.6	66.6	66.6	84	61.6	0	0	---	0.00	29.921 
03:30	66.6	66.6	66.6	84	61.6	0	0	---	0.00	29.909 
03:35	66.4	66.4	66.4	84	61.4	0	0	---	0.00	29.909 
03:40	66.4	66.4	66.4	84	61.4	0	0	---	0.00	29.909 
03:45	66.3	66.3	66.3	84	61.3	0	0	---	0.00	29.904 
03:50	66.3	66.3	66.3	84	61.3	0	0	---	0.00	29.904 
03:55	66.1	66.1	66.1	84	61.1	0	0	---	0.00	29.904 
04:00	66.1	66.1	66.1	84	61.1	0	0	---	0.00	29.898 
04:05	66.3	66.3	66.3	83	61.0	0	1	90	0.00	29.898 
04:10	66.4	66.4	66.4	83	61.1	0	1	90	0.00	29.898 
04:15	66.6	66.6	66.6	82	60.9	0	1	90	0.00	29.901 
04:20	66.6	66.6	66.6	82	60.9	0	0	---	0.00	29.901 
04:25	66.8	66.8	66.8	82	61.1	0	2	90	0.00	29.901 
04:30	67.1	67.1	67.1	81	61.1	1	3	90	0.00	29.899 
04:35	67.6	67.6	67.6	81	61.6	1	3	225	0.00	29.899 
04:40	67.8	67.8	67.8	80	61.4	0	2	225	0.00	29.899 
04:45	67.9	67.9	67.9	80	61.5	0	2	225	0.00	29.896 
04:50	68.1	68.1	68.1	80	61.7	0	2	225	0.00	29.896 
04:55	68.1	68.1	68.1	80	61.7	0	1	225	0.00	29.896 
05:00	68.1	68.1	68.1	80	61.7	0	1	225	0.00	29.892 
05:05	68.1	68.1	68.1	80	61.7	0	2	225	0.00	29.892 
05:10	68.3	68.3	68.3	80	61.9	0	1	225	0.00	29.892 
05:15	68.3	68.3	68.3	80	61.9	0	2	225	0.00	29.897 
05:20	68.4	68.4	68.4	80	62.0	0	1	225	0.00	29.897 
05:25	68.4	68.4	68.4	81	62.3	0	1	225	0.00	29.897 
05:30	68.6	68.6	68.6	81	62.5	0	1	225	0.00	29.891 
05:35	68.6	68.6	68.6	80	62.2	1	2	225	0.00	29.891 
05:40	68.8	68.8	68.8	80	62.4	0	2	225	0.00	29.891 
05:45	68.9	68.9	68.9	80	62.5	0	2	225	0.00	29.888 
05:50	68.8	68.8	68.8	80	62.4	0	2	225	0.00	29.888 
05:55	68.8	68.8	68.8	81	62.7	0	1	225	0.00	29.888 
06:00	68.8	68.8	68.8	81	62.7	0	0	---	0.00	29.885 
06:05	68.6	68.6	68.6	81	62.5	0	2	225	0.00	29.885 
06:10	68.6	68.6	68.6	81	62.5	0	2	225	0.00	29.885 
06:15	68.6	68.6	68.6	81	62.5	1	4	90	0.00	29.875 
06:20	68.6	68.6	68.6	81	62.5	1	3	112	0.00	29.875 
06:25	68.6	68.6	68.6	81	62.5	0	1	112	0.00	29.875 
06:30	68.4	68.4	68.4	81	62.3	0	1	112	0.00	29.890 
06:35	68.4	68.4	68.4	82	62.7	0	1	112	0.00	29.890 
06:40	68.3	68.3	68.3	82	62.6	0	1	112	0.00	29.890 
06:45	68.3	68.3	68.3	82	62.6	0	0	---	0.00	29.902 
06:50	68.1	68.1	68.1	82	62.4	0	0	---	0.00	29.902 
06:55	68.1	68.1	68.1	82	62.4	0	0	---	0.00	29.902 
07:00	67.9	67.9	67.9	83	62.5	0	0	---	0.00	29.902 
07:05	67.9	67.9	67.9	83	62.5	0	0	---	0.00	29.902 
07:10	67.8	67.8	67.8	84	62.8	0	0	---	0.00	29.902 
07:15	67.8	67.8	67.8	84	62.8	0	0	---	0.00	29.932 
07:20	67.8	67.8	67.8	84	62.8	0	0	---	0.00	29.932 
07:25	67.9	67.9	67.9	84	62.9	0	0	---	0.00	29.932 
07:30	68.1	68.1	68.1	84	63.1	0	1	112	0.00	29.944 
07:35	68.1	68.1	68.1	84	63.1	0	1	112	0.00	29.944 
07:40	68.1	68.1	68.1	85	63.4	0	1	112	0.00	29.944 
07:45	68.1	68.1	68.1	86	63.7	0	1	112	0.00	29.940 
07:50	68.1	68.1	68.1	86	63.7	0	1	112	0.00	29.940 
07:55	68.1	68.1	68.1	87	64.1	0	1	112	0.00	29.940 
08:00	68.3	68.3	68.3	87	64.3	0	1	112	0.00	29.938 
08:05	68.3	68.3	68.3	87	64.3	0	2	112	0.00	29.938 
08:10	68.4	68.4	68.4	87	64.4	0	2	270	0.00	29.938 
08:15	68.4	68.4	68.4	87	64.4	0	2	270	0.00	29.940 
08:20	68.6	68.6	68.6	87	64.6	0	2	270	0.00	29.940 
08:25	68.8	68.8	68.8	87	64.8	0	2	270	0.00	29.940 
08:30	68.9	68.9	68.9	86	64.5	0	2	270	0.00	29.931 
08:35	69.1	69.1	69.1	86	64.7	1	2	248	0.00	29.931 
08:40	69.3	69.3	69.3	85	64.6	1	3	248	0.00	29.931 
08:45	69.6	69.6	69.6	84	64.5	1	3	248	0.00	29.933 
08:50	69.9	69.9	69.9	83	64.5	2	5	248	0.00	29.933 
08:55	70.3	70.3	70.3	83	64.9	2	6	248	0.00	29.933 
09:00	70.4	70.4	70.4	82	64.6	1	5	248	0.00	29.925 
09:05	70.6	70.6	70.6	81	64.5	2	5	270	0.00	29.925 
09:10	70.9	70.9	70.9	80	64.4	2	7	270	0.00	29.925 
09:15	71.3	71.3	71.3	79	64.4	2	6	248	0.00	29.909 
09:20	71.5	71.5	71.5	78	64.3	3	6	248	0.00	29.909 
09:25	71.5	71.5	71.5	78	64.3	2	5	248	0.00	29.909 
09:30	71.5	71.5	71.5	77	63.9	2	5	248	0.00	29.893 
09:35	71.6	71.6	71.6	78	64.4	2	6	248	0.00	29.893 
09:40	71.8	71.8	71.8	77	64.2	3	8	270	0.00	29.893 
09:45	72.0	72.0	72.0	76	64.0	4	12	248	0.00	29.888 
09:50	72.0	72.0	72.0	75	63.6	5	13	270	0.00	29.888 
09:55	72.1	72.1	72.1	75	63.7	3	6	270	0.00	29.888 
10:00	72.3	72.3	72.3	75	63.9	3	7	270	0.00	29.900 
10:05	72.3	72.3	72.3	74	63.5	2	6	248	0.00	29.900 
10:10	72.3	72.3	72.3	74	63.5	3	9	270	0.00	29.900 
10:15	72.3	72.3	72.3	74	63.5	3	7	270	0.00	29.913 
10:20	72.3	72.3	72.3	74	63.5	3	7	270	0.00	29.913 
10:25	72.3	72.3	72.3	73	63.1	2	4	270	0.00	29.913 
10:30	72.5	72.5	72.5	73	63.3	2	5	248	0.00	29.921 
10:35	72.7	72.7	72.7	72	63.1	1	4	248	0.00	29.921 
10:40	73.0	73.0	73.0	71	63.0	1	2	270	0.00	29.921 
10:45	73.2	73.2	73.2	70	62.8	1	3	292	0.00	29.933 
10:50	73.3	73.3	73.3	69	62.5	0	2	292	0.00	29.933 
10:55	73.5	73.5	73.5	69	62.7	0	3	248	0.00	29.933 
11:00	73.5	73.5	73.5	69	62.7	1	4	270	0.00	29.946 
11:05	73.5	73.5	73.5	70	63.1	0	2	292	0.00	29.946 
11:10	73.5	73.5	73.5	69	62.7	0	2	315	0.00	29.946 
11:15	73.7	73.7	73.7	69	62.9	0	2	315	0.00	29.936 
11:20	73.7	73.7	73.7	68	62.5	1	3	315	0.00	29.936 
11:25	73.7	73.7	73.7	67	62.0	0	1	292	0.00	29.936 
11:30	73.7	73.7	73.7	66	61.6	0	2	292	0.00	29.927 
11:35	73.9	73.9	73.9	66	61.8	1	4	292	0.00	29.927 
11:40	73.9	73.9	73.9	64	60.9	1	3	315	0.00	29.927 
11:45	74.0	74.0	74.0	64	61.0	1	3	292	0.00	29.921 
11:50	74.2	74.2	74.2	63	60.8	1	3	292	0.00	29.921 
11:55	74.4	74.4	74.4	62	60.5	1	3	292	0.00	29.921 
12:00	74.6	74.6	74.6	61	60.2	1	3	292	0.00	29.924 
12:05	74.7	74.7	74.7	61	60.3	0	3	292	0.00	29.924 
12:10	74.9	74.9	74.9	61	60.5	0	2	292	0.00	29.924 
12:15	74.9	74.9	74.9	61	60.5	1	3	292	0.00	29.914 
12:20	74.9	74.9	74.9	59	59.6	1	2	90	0.00	29.914 
12:25	75.3	75.3	77.5	60	60.4	0	2	0	0.00	29.914 
12:30	75.4	75.4	77.7	58	59.6	0	2	0	0.00	29.913 
12:35	75.6	75.6	77.7	60	60.7	0	1	0	0.00	29.913 
12:40	76.3	76.3	78.2	61	61.8	1	4	45	0.00	29.913 
12:45	77.4	77.4	79.1	60	62.4	1	5	135	0.00	29.898 
12:50	77.9	77.9	79.5	57	61.4	1	3	90	0.00	29.898 
12:55	78.3	78.3	79.9	58	62.3	1	6	90	0.00	29.898 
13:00	78.5	78.5	80.0	57	62.0	1	3	270	0.00	29.892 
13:05	79.0	79.0	80.3	55	61.4	2	7	90	0.00	29.892 
13:10	79.2	79.2	80.4	53	60.6	3	7	90	0.00	29.892 
13:15	79.2	79.2	80.4	54	61.1	2	7	90	0.00	29.879 
13:20	79.4	79.4	80.5	53	60.8	2	6	90	0.00	29.879 
13:25	79.8	79.8	81.2	56	62.7	2	4	112	0.00	29.879 
13:30	80.3	80.3	81.5	54	62.1	2	5	90	0.00	29.875 
13:35	80.5	80.5	81.3	50	60.1	2	5	90	0.00	29.875 
13:40	81.1	81.1	82.0	51	61.2	0	3	90	0.00	29.875 
13:45	81.6	81.6	82.2	49	60.6	1	3	68	0.00	29.869 
13:50	82.0	82.0	82.5	48	60.3	1	3	90	0.00	29.869 
13:55	82.4	82.4	82.7	47	60.1	1	3	90	0.00	29.869 
14:00	82.2	82.2	82.5	47	59.9	2	6	90	0.00	29.876 
14:05	82.6	82.6	82.8	46	59.7	0	2	90	0.00	29.876 
14:10	82.8	82.8	83.0	46	59.9	2	4	90	0.00	29.876 
14:15	82.6	82.6	82.7	45	59.1	1	5	90	0.00	29.887 
14:20	83.0	83.0	83.1	45	59.4	1	3	112	0.00	29.887 
14:25	82.8	82.8	82.9	45	59.3	1	3	112	0.00	29.887 
14:30	82.8	82.8	83.0	46	59.9	1	4	90	0.00	29.890 
14:35	83.2	83.2	83.4	46	60.2	1	3	90	0.00	29.890 
14:40	83.6	83.6	83.5	44	59.3	1	5	90	0.00	29.890 
14:45	83.6	83.6	83.4	43	58.7	1	3	90	0.00	29.891 
14:50	84.0	84.0	84.3	46	61.0	0	2	90	0.00	29.891 
14:55	84.3	84.3	83.9	42	58.7	1	4	90	0.00	29.891 
15:00	84.9	84.9	84.6	42	59.2	1	3	248	0.00	29.886 
15:05	85.3	85.3	84.5	39	57.5	1	4	270	0.00	29.886 
15:10	85.5	85.5	84.5	38	57.0	1	4	270	0.00	29.886 
15:15	85.5	85.5	84.9	40	58.4	0	2	292	0.00	29.879 
15:20	85.7	85.7	85.3	41	59.3	1	4	315	0.00	29.879 
15:25	85.7	85.7	85.3	41	59.3	0	3	68	0.00	29.879 
15:30	85.5	85.5	84.5	38	57.0	1	3	68	0.00	29.883 
15:35	84.9	84.9	84.2	40	57.8	1	3	292	0.00	29.883 
15:40	84.7	84.7	84.6	43	59.7	1	3	315	0.00	29.883 
15:45	84.9	84.9	84.2	40	57.8	1	4	315	0.00	29.888 
15:50	85.1	85.1	84.3	39	57.3	2	4	315	0.00	29.888 
15:55	85.3	85.3	84.5	39	57.5	1	4	270	0.00	29.888 
16:00	85.1	85.1	84.4	40	58.0	2	4	292	0.00	29.891 
16:05	85.1	85.1	84.4	40	58.0	2	4	248	0.00	29.891 
16:10	84.9	84.9	84.2	40	57.8	1	3	315	0.00	29.891 
16:15	84.9	84.9	84.4	41	58.5	1	3	248	0.00	29.886 
16:20	84.7	84.7	84.6	43	59.7	1	4	292	0.00	29.886 
16:25	84.5	84.5	84.1	42	58.9	1	3	292	0.00	29.886 
16:30	84.5	84.5	84.3	43	59.5	1	3	292	0.00	29.879 
16:35	84.0	84.0	84.1	45	60.3	1	2	315	0.00	29.879 
16:40	83.8	83.8	83.7	44	59.5	1	3	315	0.00	29.879 
16:45	83.8	83.8	83.7	44	59.5	1	3	315	0.00	29.881 
16:50	83.6	83.6	83.9	46	60.6	0	1	315	0.00	29.881 
16:55	83.2	83.2	83.4	46	60.2	1	4	270	0.00	29.881 
17:00	83.2	83.2	83.4	46	60.2	0	2	338	0.00	29.888 
17:05	83.2	83.2	83.4	46	60.2	0	2	315	0.00	29.888 
17:10	82.8	82.8	83.0	46	59.9	1	3	315	0.00	29.888 
17:15	82.2	82.2	82.7	48	60.5	1	3	292	0.00	29.891 
17:20	81.8	81.8	82.3	48	60.2	1	3	270	0.00	29.891 
17:25	81.8	81.8	82.6	50	61.3	1	2	315	0.00	29.891 
17:30	81.8	81.8	82.4	49	60.7	1	3	292	0.00	29.892 
17:35	81.6	81.6	82.2	49	60.6	1	3	292	0.00	29.892 
17:40	81.4	81.4	82.3	51	61.5	1	3	292	0.00	29.892 
17:45	81.4	81.4	82.3	51	61.5	2	4	270	0.00	29.897 
17:50	81.4	81.4	82.1	50	60.9	2	3	248	0.00	29.897 
17:55	81.6	81.6	82.3	50	61.1	1	4	248	0.00	29.897 
18:00	81.4	81.4	82.1	50	60.9	1	2	248	0.00	29.894 
18:05	81.4	81.4	82.1	50	60.9	1	4	248	0.00	29.894 
18:10	81.1	81.1	81.7	49	60.1	2	4	248	0.00	29.894 
18:15	80.9	80.9	81.6	50	60.5	1	2	248	0.00	29.905 
18:20	80.3	80.3	81.8	57	63.7	1	2	248	0.00	29.905 
18:25	78.3	78.3	79.8	57	61.8	0	2	248	0.00	29.905 
18:30	77.9	77.9	79.4	56	60.9	1	3	248	0.00	29.907 
18:35	77.4	77.4	79.1	58	61.4	0	1	248	0.00	29.907 
18:40	76.7	76.7	78.5	62	62.7	0	1	248	0.00	29.907 
18:45	75.4	75.4	77.1	69	64.5	0	1	248	0.00	29.902 
18:50	74.6	74.6	74.6	67	62.9	0	2	248	0.00	29.902 
18:55	74.2	74.2	74.2	65	61.7	0	1	248	0.00	29.902 
19:00	74.2	74.2	74.2	69	63.4	0	2	248	0.00	29.910 
19:05	73.0	73.0	73.0	73	63.8	0	1	248	0.00	29.910 
19:10	72.3	72.3	72.3	77	64.7	0	1	248	0.00	29.910 
19:15	71.8	71.8	71.8	77	64.2	0	1	248	0.00	29.913 
19:20	71.6	71.6	71.6	77	64.0	0	1	248	0.00	29.913 
19:25	71.6	71.6	71.6	76	63.6	0	1	248	0.00	29.913 
19:30	71.5	71.5	71.5	78	64.3	0	0	---	0.00	29.901 
19:35	71.3	71.3	71.3	79	64.4	0	0	---	0.00	29.901 
19:40	71.1	71.1	71.1	77	63.5	0	0	---	0.00	29.901 
19:45	70.9	70.9	70.9	75	62.6	0	0	---	0.00	29.896 
19:50	70.9	70.9	70.9	79	64.1	0	0	---	0.00	29.896 
19:55	70.8	70.8	70.8	78	63.6	0	0	---	0.00	29.896 
20:00	71.1	71.1	71.1	77	63.5	0	1	248	0.00	29.888 
20:05	70.9	70.9	70.9	81	64.8	0	0	---	0.00	29.888 
20:10	70.8	70.8	70.8	78	63.6	0	0	---	0.00	29.888 
20:15	70.9	70.9	70.9	77	63.3	0	0	---	0.00	29.868 
20:20	70.9	70.9	70.9	78	63.7	0	0	---	0.00	29.868 
20:25	70.8	70.8	70.8	79	64.0	0	0	---	0.00	29.868 
20:30	70.6	70.6	70.6	79	63.8	0	0	---	0.00	29.866 
20:35	70.6	70.6	70.6	81	64.5	0	0	---	0.00	29.866 
20:40	70.3	70.3	70.3	80	63.8	0	0	---	0.00	29.866 
20:45	69.9	69.9	69.9	82	64.1	0	0	---	0.00	29.860 
20:50	69.8	69.8	69.8	82	64.0	0	0	---	0.00	29.860 
20:55	69.4	69.4	69.4	80	63.0	0	0	---	0.00	29.860 
21:00	69.3	69.3	69.3	83	63.9	0	0	---	0.00	29.867 
21:05	69.1	69.1	69.1	83	63.7	0	0	---	0.00	29.867 
21:10	69.1	69.1	69.1	80	62.7	0	0	---	0.00	29.867 
21:15	69.1	69.1	69.1	81	63.0	0	0	---	0.00	29.856 
21:20	68.9	68.9	68.9	80	62.5	0	0	---	0.00	29.856 
21:25	68.9	68.9	68.9	80	62.5	0	1	248	0.00	29.856 
21:30	68.8	68.8	68.8	81	62.7	0	1	248	0.00	29.852 
21:35	68.6	68.6	68.6	83	63.2	0	0	---	0.00	29.852 
21:40	68.4	68.4	68.4	83	63.0	0	0	---	0.00	29.852 
21:45	68.1	68.1	68.1	81	62.0	0	0	---	0.00	29.851 
21:50	67.9	67.9	67.9	81	61.8	0	0	---	0.00	29.851 
21:55	67.9	67.9	67.9	84	62.9	0	0	---	0.00	29.851 
22:00	67.8	67.8	67.8	83	62.4	0	0	---	0.00	29.845 
22:05	67.6	67.6	67.6	84	62.6	0	0	---	0.00	29.845 
22:10	67.4	67.4	67.4	85	62.7	0	0	---	0.00	29.845 
22:15	67.1	67.1	67.1	85	62.4	0	0	---	0.00	29.847 
22:20	66.8	66.8	66.8	85	62.1	0	0	---	0.00	29.847 
22:25	66.4	66.4	66.4	86	62.1	0	0	---	0.00	29.847 
22:30	66.3	66.3	66.3	87	62.3	0	0	---	0.00	29.853 
22:35	66.1	66.1	66.1	87	62.1	0	0	---	0.00	29.853 
22:40	66.1	66.1	66.1	88	62.4	0	0	---	0.00	29.853 
22:45	66.0	66.0	66.0	88	62.3	0	0	---	0.00	29.865 
22:50	66.0	66.0	66.0	88	62.3	0	0	---	0.00	29.865 
22:55	65.8	65.8	65.8	88	62.1	0	0	---	0.00	29.865 
23:00	65.8	65.8	65.8	89	62.5	0	0	---	0.00	29.867 
23:05	65.6	65.6	65.6	89	62.3	0	0	---	0.00	29.867 
23:10	65.5	65.5	65.5	89	62.2	0	0	---	0.00	29.867 
23:15	65.5	65.5	65.5	88	61.8	0	0	---	0.00	29.870 
23:20	65.3	65.3	65.3	89	62.0	0	0	---	0.00	29.870 
23:25	65.2	65.2	65.2	89	61.9	0	0	---	0.00	29.870 
23:30	65.2	65.2	65.2	89	61.9	0	0	---	0.00	29.881 
23:35	65.0	65.0	65.0	89	61.7	0	0	---	0.00	29.881 
23:40	65.0	65.0	65.0	88	61.4	0	0	---	0.00	29.881 
23:45	65.0	65.0	65.0	89	61.7	0	1	248	0.00	29.877 
23:50	65.2	65.2	65.2	88	61.6	0	0	---	0.00	29.877 
23:55	65.5	65.5	65.5	86	61.2	0	0	---	0.00	29.877 

CoCoRaHS
IN-AL-39
A2 Web Hosting
Creative Commons License
GoDaddy
Look for:

loaded 2017-12-12 01:50:46 • last modified 2010-11-18 10:43:29
Privacy PolicyDisclaimer
• wx.awcolley.com is powered by PmWiki v.2002016 •
• all content (unless otherwise noted) © 2017 A W Colley